sensor_id;sensor_type;location;lat;lon;timestamp;P1;durP1;ratioP1;P2;durP2;ratioP2
11984;SDS011;6052;53.246;10.368;2022-10-31T00:01:25;0.65;;;0.60;;
11984;SDS011;6052;53.246;10.368;2022-10-31T00:03:54;0.47;;;0.47;;
11984;SDS011;6052;53.246;10.368;2022-10-31T00:06:25;0.93;;;0.75;;
11984;SDS011;6052;53.246;10.368;2022-10-31T00:08:54;0.65;;;0.57;;
11984;SDS011;6052;53.246;10.368;2022-10-31T00:11:24;0.50;;;0.50;;
11984;SDS011;6052;53.246;10.368;2022-10-31T00:13:52;0.50;;;0.43;;
11984;SDS011;6052;53.246;10.368;2022-10-31T00:16:22;0.52;;;0.47;;
11984;SDS011;6052;53.246;10.368;2022-10-31T00:18:51;0.70;;;0.70;;
11984;SDS011;6052;53.246;10.368;2022-10-31T00:21:19;0.52;;;0.52;;
11984;SDS011;6052;53.246;10.368;2022-10-31T00:23:47;1.08;;;0.90;;
11984;SDS011;6052;53.246;10.368;2022-10-31T00:26:16;0.65;;;0.57;;
11984;SDS011;6052;53.246;10.368;2022-10-31T00:28:43;0.70;;;0.70;;
11984;SDS011;6052;53.246;10.368;2022-10-31T00:31:12;0.70;;;0.70;;
11984;SDS011;6052;53.246;10.368;2022-10-31T00:33:41;0.55;;;0.55;;
11984;SDS011;6052;53.246;10.368;2022-10-31T00:36:11;0.43;;;0.43;;
11984;SDS011;6052;53.246;10.368;2022-10-31T00:38:39;0.80;;;0.80;;
11984;SDS011;6052;53.246;10.368;2022-10-31T00:41:07;0.47;;;0.47;;
11984;SDS011;6052;53.246;10.368;2022-10-31T00:43:35;0.40;;;0.40;;
11984;SDS011;6052;53.246;10.368;2022-10-31T00:46:03;0.40;;;0.40;;
11984;SDS011;6052;53.246;10.368;2022-10-31T00:48:31;0.65;;;0.60;;
11984;SDS011;6052;53.246;10.368;2022-10-31T00:51:00;0.70;;;0.60;;
11984;SDS011;6052;53.246;10.368;2022-10-31T00:53:28;0.77;;;0.73;;
11984;SDS011;6052;53.246;10.368;2022-10-31T00:55:55;0.60;;;0.50;;
11984;SDS011;6052;53.246;10.368;2022-10-31T00:58:23;0.90;;;0.80;;
11984;SDS011;6052;53.246;10.368;2022-10-31T01:00:51;0.50;;;0.50;;
11984;SDS011;6052;53.246;10.368;2022-10-31T01:03:22;0.40;;;0.40;;
11984;SDS011;6052;53.246;10.368;2022-10-31T01:05:57;1.52;;;0.70;;
11984;SDS011;6052;53.246;10.368;2022-10-31T01:08:26;0.63;;;0.55;;
11984;SDS011;6052;53.246;10.368;2022-10-31T01:10:58;0.55;;;0.55;;
11984;SDS011;6052;53.246;10.368;2022-10-31T01:13:30;1.25;;;0.52;;
11984;SDS011;6052;53.246;10.368;2022-10-31T01:15:59;0.38;;;0.38;;
11984;SDS011;6052;53.246;10.368;2022-10-31T01:18:27;0.60;;;0.60;;
11984;SDS011;6052;53.246;10.368;2022-10-31T01:20:59;0.73;;;0.68;;
11984;SDS011;6052;53.246;10.368;2022-10-31T01:23:29;1.25;;;1.15;;
11984;SDS011;6052;53.246;10.368;2022-10-31T01:28:44;0.52;;;0.52;;
11984;SDS011;6052;53.246;10.368;2022-10-31T01:31:13;0.60;;;0.60;;
11984;SDS011;6052;53.246;10.368;2022-10-31T01:33:41;0.70;;;0.70;;
11984;SDS011;6052;53.246;10.368;2022-10-31T01:36:14;0.50;;;0.50;;
11984;SDS011;6052;53.246;10.368;2022-10-31T01:38:44;1.90;;;1.00;;
11984;SDS011;6052;53.246;10.368;2022-10-31T01:41:13;0.57;;;0.57;;
11984;SDS011;6052;53.246;10.368;2022-10-31T01:43:46;0.90;;;0.82;;
11984;SDS011;6052;53.246;10.368;2022-10-31T01:46:16;0.75;;;0.70;;
11984;SDS011;6052;53.246;10.368;2022-10-31T01:48:46;0.60;;;0.60;;
11984;SDS011;6052;53.246;10.368;2022-10-31T01:51:15;1.25;;;0.88;;
11984;SDS011;6052;53.246;10.368;2022-10-31T01:53:45;0.90;;;0.90;;
11984;SDS011;6052;53.246;10.368;2022-10-31T01:56:13;0.55;;;0.55;;
11984;SDS011;6052;53.246;10.368;2022-10-31T01:58:43;0.95;;;0.85;;
11984;SDS011;6052;53.246;10.368;2022-10-31T02:01:13;0.68;;;0.68;;
11984;SDS011;6052;53.246;10.368;2022-10-31T02:03:42;1.48;;;0.93;;
11984;SDS011;6052;53.246;10.368;2022-10-31T02:06:16;0.95;;;0.90;;
11984;SDS011;6052;53.246;10.368;2022-10-31T02:08:50;1.05;;;0.93;;
11984;SDS011;6052;53.246;10.368;2022-10-31T02:11:17;1.00;;;0.95;;
11984;SDS011;6052;53.246;10.368;2022-10-31T02:13:45;0.90;;;0.80;;
11984;SDS011;6052;53.246;10.368;2022-10-31T02:16:14;1.13;;;1.00;;
11984;SDS011;6052;53.246;10.368;2022-10-31T02:18:41;3.10;;;1.33;;
11984;SDS011;6052;53.246;10.368;2022-10-31T02:21:11;1.02;;;0.85;;
11984;SDS011;6052;53.246;10.368;2022-10-31T02:23:46;0.93;;;0.88;;
11984;SDS011;6052;53.246;10.368;2022-10-31T02:26:43;1.73;;;1.13;;
11984;SDS011;6052;53.246;10.368;2022-10-31T02:29:27;1.85;;;1.40;;
11984;SDS011;6052;53.246;10.368;2022-10-31T02:32:04;1.30;;;1.20;;
11984;SDS011;6052;53.246;10.368;2022-10-31T02:34:34;1.35;;;1.02;;
11984;SDS011;6052;53.246;10.368;2022-10-31T02:37:06;1.17;;;1.10;;
11984;SDS011;6052;53.246;10.368;2022-10-31T02:39:39;2.47;;;0.98;;
11984;SDS011;6052;53.246;10.368;2022-10-31T02:42:13;1.23;;;1.13;;
11984;SDS011;6052;53.246;10.368;2022-10-31T02:44:44;1.70;;;1.15;;
11984;SDS011;6052;53.246;10.368;2022-10-31T02:47:16;1.85;;;1.67;;
11984;SDS011;6052;53.246;10.368;2022-10-31T02:49:45;1.52;;;1.20;;
11984;SDS011;6052;53.246;10.368;2022-10-31T02:52:19;1.20;;;0.90;;
11984;SDS011;6052;53.246;10.368;2022-10-31T02:54:48;1.20;;;1.10;;
11984;SDS011;6052;53.246;10.368;2022-10-31T02:57:17;1.02;;;0.93;;
11984;SDS011;6052;53.246;10.368;2022-10-31T02:59:47;1.45;;;1.30;;
11984;SDS011;6052;53.246;10.368;2022-10-31T03:02:26;1.95;;;1.20;;
11984;SDS011;6052;53.246;10.368;2022-10-31T03:05:07;2.15;;;1.13;;
11984;SDS011;6052;53.246;10.368;2022-10-31T03:07:41;1.98;;;1.40;;
11984;SDS011;6052;53.246;10.368;2022-10-31T03:10:13;1.75;;;1.33;;
11984;SDS011;6052;53.246;10.368;2022-10-31T03:12:46;1.42;;;1.25;;
11984;SDS011;6052;53.246;10.368;2022-10-31T03:15:19;2.05;;;1.13;;
11984;SDS011;6052;53.246;10.368;2022-10-31T03:17:52;1.52;;;1.17;;
11984;SDS011;6052;53.246;10.368;2022-10-31T03:20:24;0.80;;;0.80;;
11984;SDS011;6052;53.246;10.368;2022-10-31T03:22:54;1.33;;;1.15;;
11984;SDS011;6052;53.246;10.368;2022-10-31T03:25:22;2.17;;;1.63;;
11984;SDS011;6052;53.246;10.368;2022-10-31T03:27:50;1.33;;;1.17;;
11984;SDS011;6052;53.246;10.368;2022-10-31T03:30:18;0.70;;;0.70;;
11984;SDS011;6052;53.246;10.368;2022-10-31T03:32:47;1.13;;;0.82;;
11984;SDS011;6052;53.246;10.368;2022-10-31T03:35:19;1.60;;;1.23;;
11984;SDS011;6052;53.246;10.368;2022-10-31T03:37:48;2.33;;;1.42;;
11984;SDS011;6052;53.246;10.368;2022-10-31T03:40:17;1.70;;;1.50;;
11984;SDS011;6052;53.246;10.368;2022-10-31T03:42:49;1.27;;;1.10;;
11984;SDS011;6052;53.246;10.368;2022-10-31T03:45:20;2.45;;;1.60;;
11984;SDS011;6052;53.246;10.368;2022-10-31T03:47:51;1.67;;;1.58;;
11984;SDS011;6052;53.246;10.368;2022-10-31T03:50:20;1.52;;;1.20;;
11984;SDS011;6052;53.246;10.368;2022-10-31T03:52:49;1.48;;;1.08;;
11984;SDS011;6052;53.246;10.368;2022-10-31T03:55:23;2.20;;;1.10;;
11984;SDS011;6052;53.246;10.368;2022-10-31T03:57:55;2.17;;;1.40;;
11984;SDS011;6052;53.246;10.368;2022-10-31T04:00:26;1.42;;;1.33;;
11984;SDS011;6052;53.246;10.368;2022-10-31T04:02:55;1.52;;;1.27;;
11984;SDS011;6052;53.246;10.368;2022-10-31T04:05:27;1.95;;;1.38;;
11984;SDS011;6052;53.246;10.368;2022-10-31T04:07:57;1.88;;;1.50;;
11984;SDS011;6052;53.246;10.368;2022-10-31T04:10:27;0.82;;;0.82;;
11984;SDS011;6052;53.246;10.368;2022-10-31T04:13:00;2.72;;;1.60;;
11984;SDS011;6052;53.246;10.368;2022-10-31T04:15:29;2.60;;;1.58;;
11984;SDS011;6052;53.246;10.368;2022-10-31T04:17:58;2.58;;;1.48;;
11984;SDS011;6052;53.246;10.368;2022-10-31T04:20:32;1.65;;;1.05;;
11984;SDS011;6052;53.246;10.368;2022-10-31T04:23:01;1.70;;;1.35;;
11984;SDS011;6052;53.246;10.368;2022-10-31T04:25:29;1.27;;;1.17;;
11984;SDS011;6052;53.246;10.368;2022-10-31T04:27:57;1.85;;;1.45;;
11984;SDS011;6052;53.246;10.368;2022-10-31T04:30:27;2.33;;;1.33;;
11984;SDS011;6052;53.246;10.368;2022-10-31T04:32:55;1.88;;;1.60;;
11984;SDS011;6052;53.246;10.368;2022-10-31T04:35:23;2.38;;;1.50;;
11984;SDS011;6052;53.246;10.368;2022-10-31T04:37:52;1.10;;;0.93;;
11984;SDS011;6052;53.246;10.368;2022-10-31T04:40:19;1.50;;;1.27;;
11984;SDS011;6052;53.246;10.368;2022-10-31T04:42:47;2.88;;;1.42;;
11984;SDS011;6052;53.246;10.368;2022-10-31T04:45:15;1.58;;;1.30;;
11984;SDS011;6052;53.246;10.368;2022-10-31T04:47:46;1.77;;;1.52;;
11984;SDS011;6052;53.246;10.368;2022-10-31T04:50:14;1.55;;;1.10;;
11984;SDS011;6052;53.246;10.368;2022-10-31T04:52:42;2.50;;;1.38;;
11984;SDS011;6052;53.246;10.368;2022-10-31T04:55:12;2.05;;;1.40;;
11984;SDS011;6052;53.246;10.368;2022-10-31T04:57:41;1.73;;;1.40;;
11984;SDS011;6052;53.246;10.368;2022-10-31T05:00:09;2.03;;;1.42;;
11984;SDS011;6052;53.246;10.368;2022-10-31T05:02:44;2.53;;;1.58;;
11984;SDS011;6052;53.246;10.368;2022-10-31T05:05:12;3.72;;;1.23;;
11984;SDS011;6052;53.246;10.368;2022-10-31T05:07:40;3.88;;;1.42;;
11984;SDS011;6052;53.246;10.368;2022-10-31T05:10:08;1.90;;;1.50;;
11984;SDS011;6052;53.246;10.368;2022-10-31T05:12:40;1.40;;;1.27;;
11984;SDS011;6052;53.246;10.368;2022-10-31T05:15:13;2.13;;;1.45;;
11984;SDS011;6052;53.246;10.368;2022-10-31T05:17:41;1.92;;;1.48;;
11984;SDS011;6052;53.246;10.368;2022-10-31T05:20:09;1.65;;;1.02;;
11984;SDS011;6052;53.246;10.368;2022-10-31T05:22:41;4.05;;;2.28;;
11984;SDS011;6052;53.246;10.368;2022-10-31T05:25:09;1.60;;;1.35;;
11984;SDS011;6052;53.246;10.368;2022-10-31T05:27:39;2.55;;;1.52;;
11984;SDS011;6052;53.246;10.368;2022-10-31T05:30:08;2.35;;;1.58;;
11984;SDS011;6052;53.246;10.368;2022-10-31T05:32:37;1.70;;;1.25;;
11984;SDS011;6052;53.246;10.368;2022-10-31T05:35:06;3.35;;;1.40;;
11984;SDS011;6052;53.246;10.368;2022-10-31T05:37:35;1.70;;;1.45;;
11984;SDS011;6052;53.246;10.368;2022-10-31T05:40:06;1.45;;;1.00;;
11984;SDS011;6052;53.246;10.368;2022-10-31T05:42:37;1.90;;;1.67;;
11984;SDS011;6052;53.246;10.368;2022-10-31T05:45:08;1.63;;;0.98;;
11984;SDS011;6052;53.246;10.368;2022-10-31T05:47:36;1.80;;;1.20;;
11984;SDS011;6052;53.246;10.368;2022-10-31T05:50:05;2.13;;;1.88;;
11984;SDS011;6052;53.246;10.368;2022-10-31T05:52:33;3.00;;;1.55;;
11984;SDS011;6052;53.246;10.368;2022-10-31T05:55:02;1.65;;;1.08;;
11984;SDS011;6052;53.246;10.368;2022-10-31T05:57:31;2.28;;;1.23;;
11984;SDS011;6052;53.246;10.368;2022-10-31T05:59:59;1.40;;;1.05;;
11984;SDS011;6052;53.246;10.368;2022-10-31T06:02:31;1.50;;;1.20;;
11984;SDS011;6052;53.246;10.368;2022-10-31T06:05:02;1.33;;;1.23;;
11984;SDS011;6052;53.246;10.368;2022-10-31T06:07:31;1.33;;;1.15;;
11984;SDS011;6052;53.246;10.368;2022-10-31T06:10:00;2.13;;;1.35;;
11984;SDS011;6052;53.246;10.368;2022-10-31T06:12:30;1.30;;;1.20;;
11984;SDS011;6052;53.246;10.368;2022-10-31T06:14:58;2.35;;;1.35;;
11984;SDS011;6052;53.246;10.368;2022-10-31T06:17:26;2.20;;;1.38;;
11984;SDS011;6052;53.246;10.368;2022-10-31T06:19:58;0.98;;;0.88;;
11984;SDS011;6052;53.246;10.368;2022-10-31T06:22:26;1.75;;;1.23;;
11984;SDS011;6052;53.246;10.368;2022-10-31T06:24:53;1.33;;;0.73;;
11984;SDS011;6052;53.246;10.368;2022-10-31T06:27:21;1.88;;;1.17;;
11984;SDS011;6052;53.246;10.368;2022-10-31T06:29:49;1.70;;;1.00;;
11984;SDS011;6052;53.246;10.368;2022-10-31T06:32:17;2.25;;;1.30;;
11984;SDS011;6052;53.246;10.368;2022-10-31T06:34:45;1.13;;;0.70;;
11984;SDS011;6052;53.246;10.368;2022-10-31T06:37:15;4.00;;;1.42;;
11984;SDS011;6052;53.246;10.368;2022-10-31T06:39:43;2.38;;;1.17;;
11984;SDS011;6052;53.246;10.368;2022-10-31T06:42:11;1.73;;;1.10;;
11984;SDS011;6052;53.246;10.368;2022-10-31T06:44:40;1.60;;;0.90;;
11984;SDS011;6052;53.246;10.368;2022-10-31T06:47:08;1.88;;;1.25;;
11984;SDS011;6052;53.246;10.368;2022-10-31T06:49:35;1.10;;;0.93;;
11984;SDS011;6052;53.246;10.368;2022-10-31T06:52:04;2.47;;;1.23;;
11984;SDS011;6052;53.246;10.368;2022-10-31T06:54:33;1.02;;;0.80;;
11984;SDS011;6052;53.246;10.368;2022-10-31T06:57:02;2.42;;;1.08;;
11984;SDS011;6052;53.246;10.368;2022-10-31T06:59:30;1.50;;;1.13;;
11984;SDS011;6052;53.246;10.368;2022-10-31T07:01:58;1.13;;;1.02;;
11984;SDS011;6052;53.246;10.368;2022-10-31T07:04:27;1.20;;;0.93;;
11984;SDS011;6052;53.246;10.368;2022-10-31T07:06:55;2.40;;;1.48;;
11984;SDS011;6052;53.246;10.368;2022-10-31T07:09:22;2.20;;;1.00;;
11984;SDS011;6052;53.246;10.368;2022-10-31T07:11:52;1.40;;;1.13;;
11984;SDS011;6052;53.246;10.368;2022-10-31T07:14:20;1.70;;;1.42;;
11984;SDS011;6052;53.246;10.368;2022-10-31T07:16:48;0.57;;;0.57;;
11984;SDS011;6052;53.246;10.368;2022-10-31T07:19:16;1.95;;;0.93;;
11984;SDS011;6052;53.246;10.368;2022-10-31T07:21:44;1.73;;;0.88;;
11984;SDS011;6052;53.246;10.368;2022-10-31T07:24:12;1.48;;;1.10;;
11984;SDS011;6052;53.246;10.368;2022-10-31T07:26:39;2.00;;;1.02;;
11984;SDS011;6052;53.246;10.368;2022-10-31T07:29:09;1.85;;;1.10;;
11984;SDS011;6052;53.246;10.368;2022-10-31T07:31:37;2.47;;;1.30;;
11984;SDS011;6052;53.246;10.368;2022-10-31T07:34:05;2.50;;;1.20;;
11984;SDS011;6052;53.246;10.368;2022-10-31T07:36:32;1.90;;;1.10;;
11984;SDS011;6052;53.246;10.368;2022-10-31T07:39:00;1.90;;;0.95;;
11984;SDS011;6052;53.246;10.368;2022-10-31T07:41:30;1.17;;;0.98;;
11984;SDS011;6052;53.246;10.368;2022-10-31T07:43:58;2.78;;;1.55;;
11984;SDS011;6052;53.246;10.368;2022-10-31T07:46:28;1.48;;;1.08;;
11984;SDS011;6052;53.246;10.368;2022-10-31T07:48:56;1.38;;;1.02;;
11984;SDS011;6052;53.246;10.368;2022-10-31T07:51:24;1.10;;;1.00;;
11984;SDS011;6052;53.246;10.368;2022-10-31T07:53:51;3.92;;;1.35;;
11984;SDS011;6052;53.246;10.368;2022-10-31T07:56:19;1.13;;;0.93;;
11984;SDS011;6052;53.246;10.368;2022-10-31T07:58:47;1.27;;;1.10;;
11984;SDS011;6052;53.246;10.368;2022-10-31T08:01:14;3.13;;;1.38;;
11984;SDS011;6052;53.246;10.368;2022-10-31T08:03:43;1.08;;;0.95;;
11984;SDS011;6052;53.246;10.368;2022-10-31T08:06:11;0.70;;;0.70;;
11984;SDS011;6052;53.246;10.368;2022-10-31T08:08:39;1.45;;;1.10;;
11984;SDS011;6052;53.246;10.368;2022-10-31T08:11:07;1.27;;;1.10;;
11984;SDS011;6052;53.246;10.368;2022-10-31T08:13:34;3.03;;;0.88;;
11984;SDS011;6052;53.246;10.368;2022-10-31T08:16:03;0.85;;;0.82;;
11984;SDS011;6052;53.246;10.368;2022-10-31T08:18:33;1.52;;;0.80;;
11984;SDS011;6052;53.246;10.368;2022-10-31T08:21:05;1.52;;;0.95;;
11984;SDS011;6052;53.246;10.368;2022-10-31T08:23:32;2.60;;;1.02;;
11984;SDS011;6052;53.246;10.368;2022-10-31T08:26:03;0.40;;;0.40;;
11984;SDS011;6052;53.246;10.368;2022-10-31T08:28:32;1.38;;;0.93;;
11984;SDS011;6052;53.246;10.368;2022-10-31T08:30:59;1.55;;;1.13;;
11984;SDS011;6052;53.246;10.368;2022-10-31T08:33:27;1.35;;;0.60;;
11984;SDS011;6052;53.246;10.368;2022-10-31T08:35:57;1.00;;;0.68;;
11984;SDS011;6052;53.246;10.368;2022-10-31T08:38:26;1.38;;;1.15;;
11984;SDS011;6052;53.246;10.368;2022-10-31T08:40:54;1.50;;;0.85;;
11984;SDS011;6052;53.246;10.368;2022-10-31T08:43:21;1.13;;;0.88;;
11984;SDS011;6052;53.246;10.368;2022-10-31T08:45:49;2.35;;;0.98;;
11984;SDS011;6052;53.246;10.368;2022-10-31T08:48:17;0.38;;;0.38;;
11984;SDS011;6052;53.246;10.368;2022-10-31T08:50:45;0.47;;;0.45;;
11984;SDS011;6052;53.246;10.368;2022-10-31T08:53:14;0.63;;;0.57;;
11984;SDS011;6052;53.246;10.368;2022-10-31T08:55:45;0.90;;;0.57;;
11984;SDS011;6052;53.246;10.368;2022-10-31T08:58:17;2.83;;;0.80;;
11984;SDS011;6052;53.246;10.368;2022-10-31T09:00:49;1.67;;;0.65;;
11984;SDS011;6052;53.246;10.368;2022-10-31T09:03:21;1.42;;;0.98;;
11984;SDS011;6052;53.246;10.368;2022-10-31T09:05:54;1.73;;;0.85;;
11984;SDS011;6052;53.246;10.368;2022-10-31T09:08:26;0.55;;;0.52;;
11984;SDS011;6052;53.246;10.368;2022-10-31T09:10:57;1.42;;;0.63;;
11984;SDS011;6052;53.246;10.368;2022-10-31T09:13:30;0.75;;;0.50;;
11984;SDS011;6052;53.246;10.368;2022-10-31T09:16:03;1.10;;;1.00;;
11984;SDS011;6052;53.246;10.368;2022-10-31T09:18:32;1.25;;;0.70;;
11984;SDS011;6052;53.246;10.368;2022-10-31T09:21:00;0.90;;;0.63;;
11984;SDS011;6052;53.246;10.368;2022-10-31T09:23:28;0.70;;;0.70;;
11984;SDS011;6052;53.246;10.368;2022-10-31T09:25:58;0.82;;;0.77;;
11984;SDS011;6052;53.246;10.368;2022-10-31T09:28:28;1.60;;;1.20;;
11984;SDS011;6052;53.246;10.368;2022-10-31T09:30:56;0.70;;;0.60;;
11984;SDS011;6052;53.246;10.368;2022-10-31T09:33:24;1.83;;;0.82;;
11984;SDS011;6052;53.246;10.368;2022-10-31T09:35:51;0.45;;;0.30;;
11984;SDS011;6052;53.246;10.368;2022-10-31T09:38:20;1.45;;;0.93;;
11984;SDS011;6052;53.246;10.368;2022-10-31T09:40:51;0.68;;;0.45;;
11984;SDS011;6052;53.246;10.368;2022-10-31T09:43:25;0.75;;;0.70;;
11984;SDS011;6052;53.246;10.368;2022-10-31T09:45:56;0.70;;;0.55;;
11984;SDS011;6052;53.246;10.368;2022-10-31T09:51:23;0.50;;;0.50;;
11984;SDS011;6052;53.246;10.368;2022-10-31T09:53:57;0.65;;;0.40;;
11984;SDS011;6052;53.246;10.368;2022-10-31T09:56:30;0.50;;;0.50;;
11984;SDS011;6052;53.246;10.368;2022-10-31T09:59:00;0.47;;;0.47;;
11984;SDS011;6052;53.246;10.368;2022-10-31T10:01:34;0.70;;;0.50;;
11984;SDS011;6052;53.246;10.368;2022-10-31T10:04:11;0.80;;;0.52;;
11984;SDS011;6052;53.246;10.368;2022-10-31T10:06:47;0.82;;;0.55;;
11984;SDS011;6052;53.246;10.368;2022-10-31T10:09:17;0.77;;;0.77;;
11984;SDS011;6052;53.246;10.368;2022-10-31T10:11:50;1.33;;;0.80;;
11984;SDS011;6052;53.246;10.368;2022-10-31T10:14:27;0.60;;;0.60;;
11984;SDS011;6052;53.246;10.368;2022-10-31T10:17:09;0.68;;;0.68;;
11984;SDS011;6052;53.246;10.368;2022-10-31T10:19:50;0.68;;;0.68;;
11984;SDS011;6052;53.246;10.368;2022-10-31T10:22:29;1.20;;;0.90;;
11984;SDS011;6052;53.246;10.368;2022-10-31T10:25:07;0.60;;;0.60;;
11984;SDS011;6052;53.246;10.368;2022-10-31T10:27:44;0.98;;;0.70;;
11984;SDS011;6052;53.246;10.368;2022-10-31T10:30:17;1.05;;;0.77;;
11984;SDS011;6052;53.246;10.368;2022-10-31T10:32:47;0.93;;;0.68;;
11984;SDS011;6052;53.246;10.368;2022-10-31T10:35:19;0.70;;;0.70;;
11984;SDS011;6052;53.246;10.368;2022-10-31T10:37:50;0.88;;;0.70;;
11984;SDS011;6052;53.246;10.368;2022-10-31T10:40:21;0.47;;;0.45;;
11984;SDS011;6052;53.246;10.368;2022-10-31T10:42:53;0.47;;;0.47;;
11984;SDS011;6052;53.246;10.368;2022-10-31T10:45:43;0.60;;;0.60;;
11984;SDS011;6052;53.246;10.368;2022-10-31T10:48:39;0.40;;;0.40;;
11984;SDS011;6052;53.246;10.368;2022-10-31T10:51:15;2.05;;;0.40;;
11984;SDS011;6052;53.246;10.368;2022-10-31T10:54:13;0.60;;;0.50;;
11984;SDS011;6052;53.246;10.368;2022-10-31T10:56:51;1.25;;;0.80;;
11984;SDS011;6052;53.246;10.368;2022-10-31T10:59:24;0.55;;;0.52;;
11984;SDS011;6052;53.246;10.368;2022-10-31T11:01:54;0.57;;;0.57;;
11984;SDS011;6052;53.246;10.368;2022-10-31T11:04:24;0.40;;;0.30;;
11984;SDS011;6052;53.246;10.368;2022-10-31T11:06:58;0.88;;;0.88;;
11984;SDS011;6052;53.246;10.368;2022-10-31T11:09:29;0.70;;;0.52;;
11984;SDS011;6052;53.246;10.368;2022-10-31T11:11:57;0.50;;;0.50;;
11984;SDS011;6052;53.246;10.368;2022-10-31T11:14:27;0.70;;;0.70;;
11984;SDS011;6052;53.246;10.368;2022-10-31T11:17:07;1.05;;;0.40;;
11984;SDS011;6052;53.246;10.368;2022-10-31T11:19:37;0.40;;;0.40;;
11984;SDS011;6052;53.246;10.368;2022-10-31T11:22:05;0.68;;;0.35;;
11984;SDS011;6052;53.246;10.368;2022-10-31T11:24:36;1.58;;;0.85;;
11984;SDS011;6052;53.246;10.368;2022-10-31T11:27:11;0.40;;;0.40;;
11984;SDS011;6052;53.246;10.368;2022-10-31T11:29:41;0.52;;;0.40;;
11984;SDS011;6052;53.246;10.368;2022-10-31T11:32:15;0.45;;;0.40;;
11984;SDS011;6052;53.246;10.368;2022-10-31T11:34:45;0.35;;;0.35;;
11984;SDS011;6052;53.246;10.368;2022-10-31T11:37:16;0.47;;;0.47;;
11984;SDS011;6052;53.246;10.368;2022-10-31T11:39:46;0.70;;;0.70;;
11984;SDS011;6052;53.246;10.368;2022-10-31T11:42:20;0.50;;;0.40;;
11984;SDS011;6052;53.246;10.368;2022-10-31T11:44:49;0.40;;;0.38;;
11984;SDS011;6052;53.246;10.368;2022-10-31T11:47:20;1.08;;;0.55;;
11984;SDS011;6052;53.246;10.368;2022-10-31T11:49:52;0.30;;;0.30;;
11984;SDS011;6052;53.246;10.368;2022-10-31T11:52:21;0.38;;;0.38;;
11984;SDS011;6052;53.246;10.368;2022-10-31T11:54:55;0.60;;;0.60;;
11984;SDS011;6052;53.246;10.368;2022-10-31T11:57:26;0.63;;;0.47;;
11984;SDS011;6052;53.246;10.368;2022-10-31T11:59:55;0.40;;;0.40;;
11984;SDS011;6052;53.246;10.368;2022-10-31T12:02:26;0.45;;;0.45;;
11984;SDS011;6052;53.246;10.368;2022-10-31T12:04:56;0.50;;;0.50;;
11984;SDS011;6052;53.246;10.368;2022-10-31T12:07:29;0.22;;;0.22;;
11984;SDS011;6052;53.246;10.368;2022-10-31T12:09:57;0.38;;;0.38;;
11984;SDS011;6052;53.246;10.368;2022-10-31T12:12:40;0.50;;;0.50;;
11984;SDS011;6052;53.246;10.368;2022-10-31T12:15:22;0.60;;;0.45;;
11984;SDS011;6052;53.246;10.368;2022-10-31T12:17:58;0.55;;;0.47;;
11984;SDS011;6052;53.246;10.368;2022-10-31T12:20:57;0.20;;;0.20;;
11984;SDS011;6052;53.246;10.368;2022-10-31T12:23:42;0.52;;;0.52;;
11984;SDS011;6052;53.246;10.368;2022-10-31T12:26:17;0.40;;;0.40;;
11984;SDS011;6052;53.246;10.368;2022-10-31T12:28:54;0.60;;;0.52;;
11984;SDS011;6052;53.246;10.368;2022-10-31T12:31:34;0.55;;;0.55;;
11984;SDS011;6052;53.246;10.368;2022-10-31T12:37:26;0.20;;;0.20;;
11984;SDS011;6052;53.246;10.368;2022-10-31T12:40:07;0.35;;;0.35;;
11984;SDS011;6052;53.246;10.368;2022-10-31T12:42:49;0.32;;;0.32;;
11984;SDS011;6052;53.246;10.368;2022-10-31T12:45:34;0.77;;;0.63;;
11984;SDS011;6052;53.246;10.368;2022-10-31T12:48:24;0.30;;;0.30;;
11984;SDS011;6052;53.246;10.368;2022-10-31T12:51:00;0.65;;;0.43;;
11984;SDS011;6052;53.246;10.368;2022-10-31T12:53:38;0.25;;;0.20;;
11984;SDS011;6052;53.246;10.368;2022-10-31T12:56:17;0.57;;;0.50;;
11984;SDS011;6052;53.246;10.368;2022-10-31T12:58:53;0.35;;;0.30;;
11984;SDS011;6052;53.246;10.368;2022-10-31T13:01:25;0.80;;;0.52;;
11984;SDS011;6052;53.246;10.368;2022-10-31T13:03:57;0.47;;;0.10;;
11984;SDS011;6052;53.246;10.368;2022-10-31T13:06:29;0.88;;;0.70;;
11984;SDS011;6052;53.246;10.368;2022-10-31T13:09:01;0.73;;;0.40;;
11984;SDS011;6052;53.246;10.368;2022-10-31T13:11:32;0.40;;;0.40;;
11984;SDS011;6052;53.246;10.368;2022-10-31T13:14:03;0.25;;;0.25;;
11984;SDS011;6052;53.246;10.368;2022-10-31T13:16:34;0.40;;;0.40;;
11984;SDS011;6052;53.246;10.368;2022-10-31T13:19:07;0.57;;;0.43;;
11984;SDS011;6052;53.246;10.368;2022-10-31T13:21:39;0.32;;;0.20;;
11984;SDS011;6052;53.246;10.368;2022-10-31T13:24:13;0.25;;;0.25;;
11984;SDS011;6052;53.246;10.368;2022-10-31T13:26:44;0.30;;;0.30;;
11984;SDS011;6052;53.246;10.368;2022-10-31T13:29:18;0.47;;;0.47;;
11984;SDS011;6052;53.246;10.368;2022-10-31T13:31:52;0.52;;;0.50;;
11984;SDS011;6052;53.246;10.368;2022-10-31T13:34:22;0.43;;;0.20;;
11984;SDS011;6052;53.246;10.368;2022-10-31T13:36:56;0.30;;;0.20;;
11984;SDS011;6052;53.246;10.368;2022-10-31T13:39:34;0.20;;;0.20;;
11984;SDS011;6052;53.246;10.368;2022-10-31T13:42:11;0.88;;;0.45;;
11984;SDS011;6052;53.246;10.368;2022-10-31T13:44:41;0.20;;;0.20;;
11984;SDS011;6052;53.246;10.368;2022-10-31T13:47:20;0.35;;;0.35;;
11984;SDS011;6052;53.246;10.368;2022-10-31T13:49:49;0.30;;;0.30;;
11984;SDS011;6052;53.246;10.368;2022-10-31T13:52:22;0.68;;;0.47;;
11984;SDS011;6052;53.246;10.368;2022-10-31T13:54:53;0.47;;;0.47;;
11984;SDS011;6052;53.246;10.368;2022-10-31T13:57:26;0.40;;;0.40;;
11984;SDS011;6052;53.246;10.368;2022-10-31T14:00:05;0.52;;;0.30;;
11984;SDS011;6052;53.246;10.368;2022-10-31T14:02:35;0.30;;;0.30;;
11984;SDS011;6052;53.246;10.368;2022-10-31T14:05:22;0.38;;;0.38;;
11984;SDS011;6052;53.246;10.368;2022-10-31T14:07:52;0.28;;;0.28;;
11984;SDS011;6052;53.246;10.368;2022-10-31T14:10:22;0.40;;;0.40;;
11984;SDS011;6052;53.246;10.368;2022-10-31T14:12:53;0.40;;;0.40;;
11984;SDS011;6052;53.246;10.368;2022-10-31T14:15:22;0.40;;;0.40;;
11984;SDS011;6052;53.246;10.368;2022-10-31T14:17:53;0.20;;;0.20;;
11984;SDS011;6052;53.246;10.368;2022-10-31T14:20:24;0.30;;;0.28;;
11984;SDS011;6052;53.246;10.368;2022-10-31T14:23:09;0.30;;;0.30;;
11984;SDS011;6052;53.246;10.368;2022-10-31T14:25:40;0.68;;;0.65;;
11984;SDS011;6052;53.246;10.368;2022-10-31T14:28:20;0.50;;;0.50;;
11984;SDS011;6052;53.246;10.368;2022-10-31T14:30:52;0.95;;;0.85;;
11984;SDS011;6052;53.246;10.368;2022-10-31T14:33:21;0.52;;;0.40;;
11984;SDS011;6052;53.246;10.368;2022-10-31T14:35:51;0.40;;;0.40;;
11984;SDS011;6052;53.246;10.368;2022-10-31T14:38:27;0.80;;;0.40;;
11984;SDS011;6052;53.246;10.368;2022-10-31T14:41:15;0.25;;;0.25;;
11984;SDS011;6052;53.246;10.368;2022-10-31T14:46:54;0.20;;;0.20;;
11984;SDS011;6052;53.246;10.368;2022-10-31T14:49:36;0.43;;;0.40;;
11984;SDS011;6052;53.246;10.368;2022-10-31T14:52:12;0.22;;;0.20;;
11984;SDS011;6052;53.246;10.368;2022-10-31T14:54:42;0.98;;;0.80;;
11984;SDS011;6052;53.246;10.368;2022-10-31T14:57:15;0.30;;;0.30;;
11984;SDS011;6052;53.246;10.368;2022-10-31T14:59:46;0.60;;;0.60;;
11984;SDS011;6052;53.246;10.368;2022-10-31T15:02:18;0.50;;;0.50;;
11984;SDS011;6052;53.246;10.368;2022-10-31T15:04:48;0.40;;;0.40;;
11984;SDS011;6052;53.246;10.368;2022-10-31T15:07:19;0.73;;;0.57;;
11984;SDS011;6052;53.246;10.368;2022-10-31T15:09:57;0.75;;;0.75;;
11984;SDS011;6052;53.246;10.368;2022-10-31T15:12:27;0.82;;;0.55;;
11984;SDS011;6052;53.246;10.368;2022-10-31T15:14:55;0.28;;;0.28;;
11984;SDS011;6052;53.246;10.368;2022-10-31T15:17:25;0.90;;;0.68;;
11984;SDS011;6052;53.246;10.368;2022-10-31T15:19:53;0.98;;;0.90;;
11984;SDS011;6052;53.246;10.368;2022-10-31T15:22:23;0.40;;;0.40;;
11984;SDS011;6052;53.246;10.368;2022-10-31T15:24:51;0.85;;;0.68;;